Time,TemperatureF,DewpointF,PressureIn,WindDirection,WindDirectionDegrees,WindSpeedMPH,WindSpeedGustMPH,Humidity,HourlyPrecipIn,Conditions,Clouds,dailyrainin,SoftwareType,DateUTC
2013-02-11 00:01:00,72.0,61.0,30.19,SSE,153,5.0,5.0,69,0.00,,,0.00,,2013-02-11 05:01:00,
2013-02-11 00:12:00,72.0,62.0,30.19,ESE,122,5.0,6.0,70,0.00,,,0.00,,2013-02-11 05:12:00,
2013-02-11 00:22:00,72.0,62.0,30.19,ESE,122,5.0,6.0,70,0.00,,,0.00,,2013-02-11 05:22:00,
2013-02-11 00:32:00,72.0,61.0,30.19,SE,142,7.0,7.0,69,0.00,,,0.00,,2013-02-11 05:32:00,
2013-02-11 00:42:00,71.0,61.0,30.19,SE,143,5.0,5.0,70,0.00,,,0.00,,2013-02-11 05:42:00,
2013-02-11 00:52:00,71.0,61.0,30.19,SE,143,5.0,5.0,70,0.00,,,0.00,,2013-02-11 05:52:00,
2013-02-11 01:02:00,71.0,60.0,30.19,SE,135,5.0,7.0,69,0.00,,,0.00,,2013-02-11 06:02:00,
2013-02-11 01:12:00,71.0,60.0,30.19,SE,135,5.0,7.0,69,0.00,,,0.00,,2013-02-11 06:12:00,
2013-02-11 01:22:00,71.0,61.0,30.19,South,179,5.0,6.0,70,0.00,,,0.00,,2013-02-11 06:22:00,
2013-02-11 01:32:00,71.0,61.0,30.18,SSW,211,3.0,3.0,71,0.00,,,0.00,,2013-02-11 06:32:00,
2013-02-11 01:42:00,71.0,61.0,30.18,SSW,200,3.0,3.0,71,0.00,,,0.00,,2013-02-11 06:42:00,
2013-02-11 01:52:00,71.0,61.0,30.18,SSW,200,3.0,3.0,71,0.00,,,0.00,,2013-02-11 06:52:00,
2013-02-11 02:01:00,71.0,62.0,30.18,SW,222,2.0,5.0,72,0.00,,,0.00,,2013-02-11 07:01:00,
2013-02-11 02:11:00,71.0,62.0,30.17,South,188,3.0,6.0,73,0.00,,,0.00,,2013-02-11 07:11:00,
2013-02-11 02:22:00,71.0,62.0,30.17,South,188,3.0,6.0,73,0.00,,,0.00,,2013-02-11 07:22:00,
2013-02-11 02:32:00,71.0,60.0,30.17,SE,136,4.0,4.0,69,0.00,,,0.00,,2013-02-11 07:32:00,
2013-02-11 02:42:00,71.0,61.0,30.17,SE,138,4.0,4.0,70,0.00,,,0.00,,2013-02-11 07:42:00,
2013-02-11 02:52:00,71.0,61.0,30.17,SE,138,4.0,4.0,70,0.00,,,0.00,,2013-02-11 07:52:00,
2013-02-11 03:01:00,71.0,61.0,30.16,South,177,4.0,4.0,70,0.00,,,0.00,,2013-02-11 08:01:00,
2013-02-11 03:11:00,71.0,61.0,30.16,SE,132,3.0,6.0,71,0.00,,,0.00,,2013-02-11 08:11:00,
2013-02-11 03:21:00,71.0,61.0,30.16,SE,132,3.0,6.0,71,0.00,,,0.00,,2013-02-11 08:21:00,
2013-02-11 03:32:00,71.0,62.0,30.16,SE,141,3.0,4.0,73,0.00,,,0.00,,2013-02-11 08:32:00,
2013-02-11 03:42:00,70.0,61.0,30.16,SE,127,3.0,3.0,73,0.00,,,0.00,,2013-02-11 08:42:00,
2013-02-11 03:52:00,70.0,61.0,30.16,SE,127,3.0,3.0,73,0.00,,,0.00,,2013-02-11 08:52:00,
2013-02-11 04:01:00,70.0,61.0,30.16,SE,135,2.0,2.0,73,0.00,,,0.00,,2013-02-11 09:01:00,
2013-02-11 04:12:00,70.0,61.0,30.16,SE,135,2.0,2.0,73,0.00,,,0.00,,2013-02-11 09:12:00,
2013-02-11 04:21:00,70.0,61.0,30.15,SSE,160,3.0,5.0,73,0.00,,,0.00,,2013-02-11 09:21:00,
2013-02-11 04:32:00,71.0,62.0,30.16,ESE,113,3.0,3.0,74,0.00,,,0.00,,2013-02-11 09:32:00,
2013-02-11 04:42:00,71.0,62.0,30.16,ESE,113,3.0,3.0,74,0.00,,,0.00,,2013-02-11 09:42:00,
2013-02-11 04:52:00,71.0,63.0,30.16,SSE,150,4.0,4.0,75,0.00,,,0.00,,2013-02-11 09:52:00,
2013-02-11 05:01:00,71.0,63.0,30.15,SE,125,3.0,3.0,75,0.00,,,0.00,,2013-02-11 10:01:00,
2013-02-11 05:11:00,71.0,63.0,30.15,SE,125,3.0,3.0,75,0.00,,,0.00,,2013-02-11 10:11:00,
2013-02-11 05:21:00,71.0,63.0,30.15,ESE,107,3.0,3.0,75,0.00,,,0.00,,2013-02-11 10:21:00,
2013-02-11 05:32:00,71.0,62.0,30.15,SE,128,3.0,4.0,73,0.00,,,0.00,,2013-02-11 10:32:00,
2013-02-11 05:42:00,71.0,62.0,30.15,SE,128,3.0,4.0,73,0.00,,,0.00,,2013-02-11 10:42:00,
2013-02-11 05:51:00,71.0,62.0,30.15,SSE,153,4.0,4.0,73,0.00,,,0.00,,2013-02-11 10:51:00,
2013-02-11 06:02:00,71.0,62.0,30.15,NNE,30,5.0,5.0,73,0.00,,,0.00,,2013-02-11 11:02:00,
2013-02-11 06:11:00,71.0,62.0,30.15,NNE,30,5.0,5.0,73,0.00,,,0.00,,2013-02-11 11:11:00,
2013-02-11 06:22:00,71.0,62.0,30.15,SE,139,4.0,4.0,74,0.00,,,0.00,,2013-02-11 11:22:00,
2013-02-11 06:32:00,71.0,62.0,30.16,SE,139,3.0,5.0,74,0.00,,,0.00,,2013-02-11 11:32:00,
2013-02-11 06:42:00,71.0,62.0,30.16,SSW,210,4.0,8.0,74,0.00,,,0.00,,2013-02-11 11:42:00,
2013-02-11 06:52:00,71.0,62.0,30.16,SSW,210,4.0,8.0,74,0.00,,,0.00,,2013-02-11 11:52:00,
2013-02-11 07:03:00,71.0,62.0,30.17,ESE,110,2.0,5.0,74,0.00,,,0.00,,2013-02-11 12:03:00,
2013-02-11 07:12:00,71.0,62.0,30.17,ESE,110,2.0,5.0,74,0.00,,,0.00,,2013-02-11 12:12:00,
2013-02-11 07:22:00,71.0,62.0,30.17,SW,222,2.0,4.0,73,0.00,,,0.00,,2013-02-11 12:22:00,
2013-02-11 07:32:00,71.0,62.0,30.17,SSW,197,3.0,4.0,73,0.00,,,0.00,,2013-02-11 12:32:00,
2013-02-11 07:42:00,71.0,61.0,30.18,SSE,160,2.0,4.0,71,0.00,,,0.00,,2013-02-11 12:42:00,
2013-02-11 07:52:00,71.0,61.0,30.18,SSE,160,2.0,4.0,71,0.00,,,0.00,,2013-02-11 12:52:00,
2013-02-11 08:02:00,72.0,62.0,30.19,SSE,156,4.0,4.0,70,0.00,,,0.00,,2013-02-11 13:02:00,
2013-02-11 08:12:00,73.0,62.0,30.19,SSE,156,5.0,5.0,69,0.00,,,0.00,,2013-02-11 13:12:00,
2013-02-11 08:22:00,73.0,62.0,30.19,SSE,156,5.0,5.0,69,0.00,,,0.00,,2013-02-11 13:22:00,
2013-02-11 08:33:00,73.0,62.0,30.20,South,183,5.0,5.0,68,0.00,,,0.00,,2013-02-11 13:33:00,
2013-02-11 08:42:00,73.0,62.0,30.20,South,183,5.0,5.0,68,0.00,,,0.00,,2013-02-11 13:42:00,
2013-02-11 08:52:00,73.0,62.0,30.20,SE,146,4.0,5.0,69,0.00,,,0.00,,2013-02-11 13:52:00,
2013-02-11 09:02:00,73.0,62.0,30.20,South,174,5.0,5.0,69,0.00,,,0.00,,2013-02-11 14:02:00,
2013-02-11 09:12:00,73.0,62.0,30.20,South,174,5.0,5.0,69,0.00,,,0.00,,2013-02-11 14:12:00,
2013-02-11 09:22:00,74.0,62.0,30.20,SSE,153,6.0,6.0,67,0.00,,,0.00,,2013-02-11 14:22:00,
2013-02-11 09:33:00,75.0,63.0,30.20,SSW,212,6.0,7.0,66,0.00,,,0.00,,2013-02-11 14:33:00,
2013-02-11 09:42:00,75.0,63.0,30.21,SSE,167,4.0,5.0,66,0.00,,,0.00,,2013-02-11 14:42:00,
2013-02-11 09:53:00,75.0,63.0,30.21,SSE,167,4.0,5.0,66,0.00,,,0.00,,2013-02-11 14:53:00,
2013-02-11 10:02:00,75.0,63.0,30.21,ESE,118,8.0,11.0,66,0.00,,,0.00,,2013-02-11 15:02:00,
2013-02-11 10:11:00,75.0,63.0,30.21,ESE,118,8.0,11.0,66,0.00,,,0.00,,2013-02-11 15:11:00,
2013-02-11 10:22:00,75.0,63.0,30.21,South,179,6.0,7.0,66,0.00,,,0.00,,2013-02-11 15:22:00,
2013-02-11 10:32:00,77.0,64.0,30.21,South,184,4.0,5.0,65,0.00,,,0.00,,2013-02-11 15:32:00,
2013-02-11 10:42:00,76.0,64.0,30.22,SE,134,6.0,6.0,66,0.00,,,0.00,,2013-02-11 15:42:00,
2013-02-11 10:52:00,76.0,64.0,30.22,SE,134,6.0,6.0,66,0.00,,,0.00,,2013-02-11 15:52:00,
2013-02-11 11:02:00,76.0,63.0,30.21,South,190,6.0,6.0,64,0.00,,,0.00,,2013-02-11 16:02:00,
2013-02-11 11:12:00,76.0,63.0,30.21,SSE,167,6.0,6.0,64,0.00,,,0.00,,2013-02-11 16:12:00,
2013-02-11 11:22:00,76.0,63.0,30.21,SSE,167,6.0,6.0,64,0.00,,,0.00,,2013-02-11 16:22:00,
2013-02-11 11:32:00,77.0,64.0,30.21,SSW,200,7.0,7.0,64,0.00,,,0.00,,2013-02-11 16:32:00,
2013-02-11 11:42:00,76.0,63.0,30.20,South,172,6.0,6.0,65,0.00,,,0.00,,2013-02-11 16:42:00,
2013-02-11 11:52:00,76.0,63.0,30.20,South,172,6.0,6.0,65,0.00,,,0.00,,2013-02-11 16:52:00,
2013-02-11 12:02:00,76.0,63.0,30.20,SE,135,8.0,10.0,65,0.00,,,0.00,,2013-02-11 17:02:00,
2013-02-11 12:11:00,76.0,63.0,30.20,SE,135,8.0,10.0,65,0.00,,,0.00,,2013-02-11 17:11:00,
2013-02-11 12:22:00,75.0,63.0,30.20,SW,214,6.0,6.0,67,0.00,,,0.00,,2013-02-11 17:22:00,
2013-02-11 12:32:00,75.0,63.0,30.19,SE,128,5.0,7.0,67,0.00,,,0.00,,2013-02-11 17:32:00,
2013-02-11 12:42:00,75.0,63.0,30.19,SE,128,5.0,7.0,67,0.00,,,0.00,,2013-02-11 17:42:00,
2013-02-11 12:53:00,76.0,64.0,30.19,SSE,155,6.0,6.0,66,0.00,,,0.00,,2013-02-11 17:53:00,
2013-02-11 13:02:00,76.0,65.0,30.18,South,187,5.0,5.0,68,0.00,,,0.00,,2013-02-11 18:02:00,
2013-02-11 13:11:00,76.0,65.0,30.18,South,187,5.0,5.0,68,0.00,,,0.00,,2013-02-11 18:11:00,
2013-02-11 13:22:00,75.0,64.0,30.18,ESE,108,6.0,6.0,68,0.00,,,0.00,,2013-02-11 18:22:00,
2013-02-11 13:32:00,76.0,64.0,30.17,East,100,5.0,7.0,67,0.00,,,0.00,,2013-02-11 18:32:00,
2013-02-11 13:42:00,75.0,64.0,30.16,SSE,149,8.0,8.0,68,0.00,,,0.00,,2013-02-11 18:42:00,
2013-02-11 13:54:00,75.0,64.0,30.16,SSE,149,8.0,8.0,68,0.00,,,0.00,,2013-02-11 18:54:00,
2013-02-11 14:02:00,76.0,64.0,30.16,SSE,148,5.0,5.0,67,0.00,,,0.00,,2013-02-11 19:02:00,
2013-02-11 14:11:00,76.0,63.0,30.15,ESE,114,8.0,11.0,65,0.00,,,0.00,,2013-02-11 19:11:00,
2013-02-11 14:22:00,76.0,63.0,30.15,ESE,114,8.0,11.0,65,0.00,,,0.00,,2013-02-11 19:22:00,
2013-02-11 14:32:00,77.0,64.0,30.15,SE,127,9.0,9.0,64,0.00,,,0.00,,2013-02-11 19:32:00,
2013-02-11 14:42:00,77.0,64.0,30.15,SE,127,9.0,9.0,64,0.00,,,0.00,,2013-02-11 19:42:00,
2013-02-11 14:52:00,77.0,64.0,30.14,South,183,6.0,6.0,64,0.00,,,0.00,,2013-02-11 19:52:00,
2013-02-11 15:01:00,76.0,64.0,30.14,SSE,167,4.0,4.0,66,0.00,,,0.00,,2013-02-11 20:01:00,
2013-02-11 15:11:00,75.0,64.0,30.14,SE,146,5.0,5.0,68,0.00,,,0.00,,2013-02-11 20:11:00,
2013-02-11 15:21:00,75.0,64.0,30.14,SE,146,5.0,5.0,68,0.00,,,0.00,,2013-02-11 20:21:00,
2013-02-11 15:32:00,76.0,64.0,30.14,SE,134,6.0,6.0,66,0.00,,,0.00,,2013-02-11 20:32:00,
2013-02-11 15:42:00,76.0,63.0,30.13,SSW,200,6.0,7.0,64,0.00,,,0.00,,2013-02-11 20:42:00,
2013-02-11 15:52:00,76.0,63.0,30.13,SSW,200,6.0,7.0,64,0.00,,,0.00,,2013-02-11 20:52:00,
2013-02-11 16:02:00,76.0,64.0,30.13,ESE,108,7.0,7.0,66,0.00,,,0.00,,2013-02-11 21:02:00,
2013-02-11 16:12:00,76.0,63.0,30.13,SW,222,6.0,7.0,65,0.00,,,0.00,,2013-02-11 21:12:00,
2013-02-11 16:22:00,76.0,63.0,30.13,SW,222,6.0,7.0,65,0.00,,,0.00,,2013-02-11 21:22:00,
2013-02-11 16:32:00,76.0,63.0,30.13,SSW,203,6.0,6.0,65,0.00,,,0.00,,2013-02-11 21:32:00,
2013-02-11 16:42:00,76.0,64.0,30.13,ESE,111,6.0,6.0,66,0.00,,,0.00,,2013-02-11 21:42:00,
2013-02-11 16:52:00,76.0,64.0,30.13,ESE,111,6.0,6.0,66,0.00,,,0.00,,2013-02-11 21:52:00,
2013-02-11 17:02:00,76.0,63.0,30.12,ESE,108,6.0,6.0,65,0.00,,,0.00,,2013-02-11 22:02:00,
2013-02-11 17:12:00,75.0,63.0,30.12,SSE,150,5.0,5.0,67,0.00,,,0.00,,2013-02-11 22:12:00,
2013-02-11 17:22:00,75.0,63.0,30.12,SSE,150,5.0,5.0,67,0.00,,,0.00,,2013-02-11 22:22:00,
2013-02-11 17:32:00,75.0,63.0,30.11,SSE,156,5.0,5.0,67,0.00,,,0.00,,2013-02-11 22:32:00,
2013-02-11 17:42:00,75.0,63.0,30.11,SSE,156,5.0,5.0,67,0.00,,,0.00,,2013-02-11 22:42:00,
2013-02-11 17:52:00,75.0,64.0,30.11,SSW,201,5.0,6.0,68,0.00,,,0.00,,2013-02-11 22:52:00,
2013-02-11 18:02:00,74.0,64.0,30.11,South,183,6.0,6.0,70,0.00,,,0.00,,2013-02-11 23:02:00,
2013-02-11 18:11:00,74.0,64.0,30.11,South,183,6.0,6.0,70,0.00,,,0.00,,2013-02-11 23:11:00,
2013-02-11 18:22:00,73.0,63.0,30.11,South,170,5.0,5.0,70,0.00,,,0.00,,2013-02-11 23:22:00,
2013-02-11 18:32:00,73.0,63.0,30.11,South,176,5.0,5.0,71,0.00,,,0.00,,2013-02-11 23:32:00,
2013-02-11 18:42:00,73.0,63.0,30.11,South,176,5.0,5.0,71,0.00,,,0.00,,2013-02-11 23:42:00,
2013-02-11 18:52:00,73.0,63.0,30.10,ESE,103,4.0,4.0,70,0.00,,,0.00,,2013-02-11 23:52:00,
2013-02-11 19:02:00,73.0,63.0,30.11,SSW,203,8.0,9.0,71,0.00,,,0.00,,2013-02-12 00:02:00,
2013-02-11 19:12:00,73.0,63.0,30.11,SSW,203,8.0,9.0,71,0.00,,,0.00,,2013-02-12 00:12:00,
2013-02-11 19:22:00,73.0,63.0,30.11,South,170,5.0,5.0,71,0.00,,,0.00,,2013-02-12 00:22:00,
2013-02-11 19:32:00,73.0,63.0,30.11,SE,124,8.0,8.0,72,0.00,,,0.00,,2013-02-12 00:32:00,
2013-02-11 19:42:00,73.0,63.0,30.11,SE,124,8.0,8.0,72,0.00,,,0.00,,2013-02-12 00:42:00,
2013-02-11 19:52:00,73.0,64.0,30.12,SSW,212,2.0,2.0,74,0.00,,,0.00,,2013-02-12 00:52:00,
2013-02-11 20:02:00,73.0,64.0,30.12,SE,129,3.0,5.0,73,0.00,,,0.00,,2013-02-12 01:02:00,
2013-02-11 20:11:00,73.0,64.0,30.12,SE,129,3.0,5.0,73,0.00,,,0.00,,2013-02-12 01:11:00,
2013-02-11 20:22:00,73.0,64.0,30.12,SE,135,2.0,5.0,74,0.00,,,0.00,,2013-02-12 01:22:00,
2013-02-11 20:32:00,73.0,65.0,30.12,SSE,148,3.0,3.0,75,0.00,,,0.00,,2013-02-12 01:32:00,
2013-02-11 20:42:00,73.0,65.0,30.12,South,179,3.0,3.0,75,0.00,,,0.00,,2013-02-12 01:42:00,
2013-02-11 20:52:00,73.0,65.0,30.12,South,179,3.0,3.0,75,0.00,,,0.00,,2013-02-12 01:52:00,
2013-02-11 21:02:00,73.0,65.0,30.13,SE,139,3.0,3.0,76,0.00,,,0.00,,2013-02-12 02:02:00,
2013-02-11 21:12:00,73.0,64.0,30.13,SSE,156,1.0,1.0,74,0.00,,,0.00,,2013-02-12 02:12:00,
2013-02-11 21:22:00,73.0,64.0,30.13,SSE,156,1.0,1.0,74,0.00,,,0.00,,2013-02-12 02:22:00,
2013-02-11 21:32:00,73.0,65.0,30.13,SSE,160,5.0,5.0,75,0.00,,,0.00,,2013-02-12 02:32:00,
2013-02-11 21:42:00,73.0,65.0,30.13,SSE,160,5.0,5.0,75,0.00,,,0.00,,2013-02-12 02:42:00,
2013-02-11 21:52:00,73.0,65.0,30.13,SSW,195,3.0,4.0,76,0.00,,,0.00,,2013-02-12 02:52:00,
2013-02-11 22:02:00,72.0,64.0,30.13,South,170,3.0,3.0,76,0.00,,,0.00,,2013-02-12 03:02:00,
2013-02-11 22:11:00,73.0,65.0,30.13,SSW,212,2.0,3.0,76,0.00,,,0.00,,2013-02-12 03:11:00,
2013-02-11 22:21:00,73.0,65.0,30.13,SSW,212,2.0,3.0,76,0.00,,,0.00,,2013-02-12 03:21:00,
2013-02-11 22:32:00,72.0,64.0,30.13,South,190,2.0,2.0,76,0.00,,,0.00,,2013-02-12 03:32:00,
2013-02-11 22:42:00,72.0,64.0,30.13,SSW,198,2.0,2.0,76,0.00,,,0.00,,2013-02-12 03:42:00,
2013-02-11 22:52:00,72.0,64.0,30.13,SSW,198,2.0,2.0,76,0.00,,,0.00,,2013-02-12 03:52:00,
2013-02-11 23:01:00,73.0,64.0,30.12,SSW,193,4.0,6.0,74,0.00,,,0.00,,2013-02-12 04:01:00,
2013-02-11 23:11:00,73.0,64.0,30.12,SSW,193,4.0,6.0,74,0.00,,,0.00,,2013-02-12 04:11:00,
2013-02-11 23:21:00,73.0,64.0,30.12,South,186,2.0,4.0,74,0.00,,,0.00,,2013-02-12 04:21:00,
2013-02-11 23:31:00,73.0,64.0,30.12,SSE,149,4.0,4.0,74,0.00,,,0.00,,2013-02-12 04:31:00,
2013-02-11 23:42:00,73.0,64.0,30.12,SSE,149,4.0,4.0,74,0.00,,,0.00,,2013-02-12 04:42:00,
2013-02-11 23:52:00,73.0,64.0,30.12,South,186,3.0,3.0,74,0.00,,,0.00,,2013-02-12 04:52:00,